BADAN METEOROLOGI KLIMATOLOGI
DAN GEOFISIKA
Stasiun Meterologi Klas I
Frans Kaisiepo Biak
MET/SPECIAL REPORT


MET REPORT WABB 032030Z WIND 270/5KT VRB BTN 120/ AND 270/ VIS 6KM FBL RA CLD FEW CB 1700FT SCT 1800FT T26 DP25 QNH 1008HPA QFE 1007HPA TREND NOSIG=RMK CB AT N

MET REPORT WABB 032100Z WIND 030/5KT VRB BTN 120/ AND 030/ VIS 6KM FBL RA CLD FEW CB 1700FT SCT 1800FT T25 DP25 QNH 1009HPA QFE 1007HPA TREND NOSIG=RMK CB AT N

MET REPORT WABB 032130Z WIND 060/5KT VRB BTN 120/ AND 060/ VIS 6KM FBL RA CLD FEW CB 1700FT SCT 1800FT T25 DP24 QNH 1009HPA QFE 1008HPA TREND NOSIG=RMK CB AT N

MET REPORT WABB 032200Z WIND 040/5KT VRB BTN 120/ AND 040/ VIS 6KM FBL RA CLD FEW CB 1700FT SCT 1800FT T25 DP24 QNH 1009HPA QFE 1008HPA TREND NOSIG=RMK CB AT N

MET REPORT WABB 032200Z WIND 040/5KT VRB BTN 120/ AND 040/ VIS 9KM FBL RA CLD FEW CB 1700FT SCT 1800FT T25 DP24 QNH 1009HPA QFE 1008HPA TREND NOSIG=RMK CB AT N

METAR/SPECI


METAR WABB 032030Z 27005KT 120V270 6000 -RA FEW017CB SCT018 26/25 Q1008 NOSIG=RMK CB AT N

METAR WABB 032100Z 03005KT 120V030 6000 -RA FEW017CB SCT018 25/25 Q1009 NOSIG=RMK CB AT N

METAR WABB 032130Z 06005KT 120V060 6000 -RA FEW017CB SCT018 25/24 Q1009 NOSIG=RMK CB AT N

METAR WABB 032200Z 04005KT 120V040 6000 -RA FEW017CB SCT018 25/24 Q1009 NOSIG=RMK CB AT N

METAR WABB 032200Z 04005KT 120V040 9000 -RA FEW017CB SCT018 25/24 Q1009 NOSIG=RMK CB AT N

TAFOR


TAF WABB 031700Z 0318/0424 00000KT 9999 SCT018
BECMG 0322/0324 06006KT
TEMPO 0404/0408 5000 RA FEW017CB
BECMG 0410/0412 00000KT=

TAF WABO 031700Z 0318/0418 00000KT 9999 SCT013
TEMPO 0318/0321 4000 RA BKN013
BECMG 0322/0324 09008KT PROB30
TEMPO 0407/0409 5000 RA=

TAF WABI 031700Z 0318/0418 00000KT 7000 FEW016
TEMPO 0318/0321 4000 RA BKN014
BECMG 0322/0324 32006KT 9999 SCT015=

TAF WAYE 031700Z 0318/0418 00000KT 6000 SCT011
TEMPO 0318/0321 RA FEW009CB BKN014
BECMG 0322/0324 35005KT 9999 PROB40
TEMPO 0407/0409 4000 RA OVC012=

TAF WAYY 031700Z 0318/0418 06003KT 8000 SCT017
BECMG 0401/0403 17005KT 9999=


Stasiun Meteorologi Klas I Frans Kaisiepo Biak
Jl.Moh Yamin
Telp. (0981)25373-22824
PO.Box 132 - Biak 98101
Email : stamet.biak@bmkg.go.id

Layanan 1 x 24 jam
Telp. (0981)21742 (Forecaster Onduty)
WhatsApp (+628114822994)
Email : forecaster.biak@gmail.com

Design by : Eko | Herald
Stasiun Meteorologi Klas I Frans Kaisiepo Biak